createdAt,value
2022-09-18T00:04:48.974Z,11.56
2022-09-18T00:19:52.689Z,11.44
2022-09-18T00:34:55.768Z,11.21
2022-09-18T00:50:16.301Z,11.18
2022-09-18T01:05:36.825Z,11.05
2022-09-18T01:21:02.206Z,10.93
2022-09-18T01:36:10.315Z,10.95
2022-09-18T01:51:21.474Z,11.01
2022-09-18T02:06:32.769Z,11.02
2022-09-18T02:21:37.244Z,10.90
2022-09-18T02:37:02.350Z,10.61
2022-09-18T02:52:14.936Z,10.48
2022-09-18T03:07:19.272Z,10.43
2022-09-18T03:22:24.787Z,10.56
2022-09-18T03:37:28.724Z,10.87
2022-09-18T03:52:35.842Z,11.09
2022-09-18T04:07:49.237Z,11.18
2022-09-18T04:23:14.589Z,11.28
2022-09-18T04:38:17.753Z,11.34
2022-09-18T04:53:21.568Z,11.42
2022-09-18T05:08:24.903Z,11.57
2022-09-18T05:23:28.289Z,11.74
2022-09-18T05:38:33.360Z,11.81
2022-09-18T05:53:36.710Z,11.96
2022-09-18T06:08:45.322Z,11.99
2022-09-18T06:23:49.949Z,12.07
2022-09-18T06:39:09.646Z,12.13
2022-09-18T06:54:13.687Z,12.15
2022-09-18T07:09:16.925Z,12.30
2022-09-18T07:24:30.145Z,12.22
2022-09-18T07:39:33.618Z,12.30
2022-09-18T07:54:55.745Z,12.53
2022-09-18T08:10:07.271Z,12.73
2022-09-18T08:25:21.640Z,12.74
2022-09-18T08:40:50.468Z,12.84
2022-09-18T08:55:58.796Z,12.77
2022-09-18T09:11:53.186Z,12.70
2022-09-18T09:26:59.773Z,12.73
2022-09-18T09:42:35.425Z,12.65
2022-09-18T09:58:03.409Z,12.65
2022-09-18T10:13:27.027Z,12.65
2022-09-18T10:28:33.903Z,12.48
2022-09-18T10:44:02.370Z,12.35
2022-09-18T10:59:29.118Z,12.37
2022-09-18T11:14:42.119Z,12.41
2022-09-18T11:29:51.506Z,12.61
2022-09-18T11:45:20.771Z,12.72
2022-09-18T12:00:31.378Z,12.74
2022-09-18T12:15:40.243Z,12.96
2022-09-18T12:31:05.193Z,13.13
2022-09-18T12:46:19.874Z,13.25
2022-09-18T13:01:33.915Z,13.29
2022-09-18T13:16:50.057Z,13.37
2022-09-18T13:31:54.635Z,13.51
2022-09-18T13:47:14.361Z,13.46
2022-09-18T14:02:31.288Z,13.67
2022-09-18T14:17:37.522Z,13.68
2022-09-18T14:32:45.449Z,13.65
2022-09-18T14:47:50.850Z,13.77
2022-09-18T15:03:00.236Z,13.86
2022-09-18T15:18:04.149Z,16.22
2022-09-18T15:33:20.300Z,15.36
2022-09-18T15:48:51.516Z,14.54
2022-09-18T16:04:28.072Z,14.42
2022-09-18T16:19:33.228Z,13.92
2022-09-18T16:34:37.067Z,13.57
2022-09-18T16:49:44.049Z,13.32
2022-09-18T17:04:48.393Z,13.03
2022-09-18T17:19:52.735Z,12.97
2022-09-18T17:34:57.948Z,12.28
2022-09-18T17:50:02.505Z,12.03
2022-09-18T18:05:07.667Z,12.04
2022-09-18T18:20:12.391Z,12.05
2022-09-18T18:35:17.021Z,12.05
2022-09-18T18:50:22.569Z,12.01
2022-09-18T19:05:30.624Z,11.85
2022-09-18T19:20:35.412Z,11.64
2022-09-18T19:35:39.459Z,11.61
2022-09-18T19:50:43.657Z,11.63
2022-09-18T20:05:47.427Z,11.60
2022-09-18T20:20:52.068Z,11.59
2022-09-18T20:36:01.287Z,11.53
2022-09-18T20:51:09.704Z,11.55
2022-09-18T21:06:23.593Z,11.43
2022-09-18T21:21:29.226Z,11.46
2022-09-18T21:36:38.742Z,11.47
2022-09-18T21:51:42.806Z,11.44
2022-09-18T22:06:47.127Z,11.43
2022-09-18T22:21:52.103Z,11.39
2022-09-18T22:36:56.538Z,11.38
2022-09-18T22:51:59.634Z,11.24
2022-09-18T23:07:04.022Z,11.27
2022-09-18T23:22:10.131Z,11.29
2022-09-18T23:37:13.609Z,11.25
2022-09-18T23:52:17.046Z,11.17
